Time;durP1;ratioP1;P1;durP2;ratioP2;P2;SDS_P1;SDS_P2;PMS_P1;PMS_P2;Temp;Humidity;BMP_temperature;BMP_pressure;BME280_temperature;BME280_humidity;BME280_pressure;Samples;Min_cycle;Max_cycle;Signal;HPM_P1;HPM_P2
2023/11/20 00:02:23;;;;;;;0.00;0.00;;;;;;;8.84;100.00;99873.69;5026310;28;20482;-75
2023/11/20 00:04:48;;;;;;;0.00;0.00;;;;;;;8.69;100.00;99847.19;5007491;28;20041;-74
2023/11/20 00:07:13;;;;;;;0.00;0.00;;;;;;;8.54;100.00;99835.16;5001731;28;20034;-74
2023/11/20 00:09:39;;;;;;;0.00;0.00;;;;;;;8.68;100.00;99878.25;5013469;28;20042;-74
2023/11/20 00:12:05;;;;;;;0.00;0.00;;;;;;;8.60;100.00;99865.13;5037987;28;20030;-74
2023/11/20 00:14:33;;;;;;;0.00;0.00;;;;;;;8.72;100.00;99882.09;5012878;28;20037;-75
2023/11/20 00:17:01;;;;;;;0.00;0.00;;;;;;;8.66;100.00;99854.00;5015215;28;20559;-75
2023/11/20 00:19:27;;;;;;;0.00;0.00;;;;;;;8.78;100.00;99851.03;5034933;28;20049;-74
2023/11/20 00:21:52;;;;;;;0.00;0.00;;;;;;;9.14;100.00;99885.75;5024607;28;20480;-74
2023/11/20 00:24:18;;;;;;;0.00;0.00;;;;;;;9.14;100.00;99883.84;5025978;28;20035;-75
2023/11/20 00:26:43;;;;;;;0.00;0.00;;;;;;;9.37;99.70;99887.16;5005373;28;20041;-76
2023/11/20 00:29:09;;;;;;;0.00;0.00;;;;;;;9.31;100.00;99885.50;5015355;28;20033;-76
2023/11/20 00:31:37;;;;;;;0.00;0.00;;;;;;;8.88;100.00;99872.06;4992127;28;20029;-75
2023/11/20 00:34:03;;;;;;;0.00;0.00;;;;;;;8.82;100.00;99884.84;5011246;28;20041;-74
2023/11/20 00:36:28;;;;;;;0.00;0.00;;;;;;;8.62;100.00;99880.13;5005715;28;20042;-75
2023/11/20 00:38:56;;;;;;;0.08;0.08;;;;;;;8.46;100.00;99860.16;5031388;28;20033;-74
2023/11/20 00:41:22;;;;;;;0.00;0.00;;;;;;;8.43;100.00;99849.78;5018408;28;20045;-75
2023/11/20 00:43:49;;;;;;;0.00;0.00;;;;;;;8.26;100.00;99843.69;5044935;28;20022;-75
2023/11/20 00:46:17;;;;;;;0.03;0.03;;;;;;;8.16;100.00;99844.47;4997683;28;20484;-75
2023/11/20 00:48:44;;;;;;;0.00;0.00;;;;;;;8.09;100.00;99844.72;5013198;28;20386;-74
2023/11/20 00:51:10;;;;;;;0.00;0.00;;;;;;;8.14;100.00;99871.97;5018441;28;20104;-74
2023/11/20 00:53:35;;;;;;;0.00;0.00;;;;;;;7.98;100.00;99832.09;5013521;28;20560;-75
2023/11/20 00:56:01;;;;;;;0.00;0.00;;;;;;;8.08;100.00;99858.59;5043546;28;20109;-74
2023/11/20 00:58:28;;;;;;;0.00;0.00;;;;;;;7.90;100.00;99829.88;5027142;28;20068;-75
2023/11/20 01:00:57;;;;;;;0.00;0.00;;;;;;;8.06;100.00;99852.56;5022508;28;20026;-76
2023/11/20 01:03:25;;;;;;;0.00;0.00;;;;;;;8.03;100.00;99848.47;4988978;28;20088;-76
2023/11/20 01:05:52;;;;;;;0.00;0.00;;;;;;;7.99;100.00;99847.38;5006070;28;20379;-75
2023/11/20 01:08:24;;;;;;;0.00;0.00;;;;;;;8.00;100.00;99863.44;5021703;28;20087;-75
2023/11/20 01:10:50;;;;;;;0.00;0.00;;;;;;;7.84;100.00;99829.84;5002651;28;20051;-77
2023/11/20 01:13:15;;;;;;;0.00;0.00;;;;;;;7.98;100.00;99848.44;4992712;28;20476;-76
2023/11/20 01:15:41;;;;;;;0.00;0.00;;;;;;;7.77;100.00;99831.13;5055893;28;20022;-76
2023/11/20 01:18:06;;;;;;;0.00;0.00;;;;;;;7.62;100.00;99802.78;5019148;28;20088;-75
2023/11/20 01:20:34;;;;;;;0.00;0.00;;;;;;;7.72;100.00;99826.50;5033592;28;20085;-75
2023/11/20 01:23:03;;;;;;;0.00;0.00;;;;;;;7.61;100.00;99806.56;5044307;28;20075;-77
2023/11/20 01:25:31;;;;;;;0.10;0.10;;;;;;;7.58;100.00;99817.97;5041327;28;20025;-76
2023/11/20 01:28:00;;;;;;;0.00;0.00;;;;;;;7.66;100.00;99819.38;5019056;28;20117;-75
2023/11/20 01:30:26;;;;;;;0.10;0.10;;;;;;;7.65;100.00;99807.69;5023509;28;20031;-76
2023/11/20 01:32:52;;;;;;;0.00;0.00;;;;;;;7.61;100.00;99812.00;5024555;28;20028;-76
2023/11/20 01:35:18;;;;;;;0.00;0.00;;;;;;;7.56;100.00;99802.97;5022286;28;20083;-78
2023/11/20 01:37:43;;;;;;;0.00;0.00;;;;;;;7.49;100.00;99804.03;5027078;28;20029;-78
2023/11/20 01:40:12;;;;;;;0.00;0.00;;;;;;;7.57;100.00;99810.06;5063069;28;20525;-78
2023/11/20 01:42:37;;;;;;;0.00;0.00;;;;;;;7.42;100.00;99789.84;5034991;28;20048;-76
2023/11/20 01:45:03;;;;;;;0.00;0.00;;;;;;;7.42;100.00;99798.00;5031925;28;20117;-77
2023/11/20 01:47:36;;;;;;;0.00;0.00;;;;;;;7.54;100.00;99821.47;5033289;28;20112;-78
2023/11/20 01:50:11;;;;;;;0.00;0.00;;;;;;;7.39;100.00;99809.41;5032318;28;20051;-76
2023/11/20 01:52:40;;;;;;;0.00;0.00;;;;;;;7.40;100.00;99800.13;5027222;28;20067;-76
2023/11/20 01:55:09;;;;;;;0.00;0.00;;;;;;;7.48;100.00;99829.59;5038072;28;20471;-76
2023/11/20 01:57:36;;;;;;;0.00;0.00;;;;;;;7.49;100.00;99825.78;5019806;28;20092;-77
2023/11/20 02:00:09;;;;;;;0.00;0.00;;;;;;;7.27;100.00;99800.56;5033994;28;20013;-76
2023/11/20 02:02:38;;;;;;;0.00;0.00;;;;;;;7.24;100.00;99801.09;5036575;28;20024;-77
2023/11/20 02:05:05;;;;;;;0.00;0.00;;;;;;;7.21;100.00;99790.75;5009513;28;21438;-76
2023/11/20 02:07:36;;;;;;;0.00;0.00;;;;;;;7.23;100.00;99796.72;5029618;28;20037;-77
2023/11/20 02:10:03;;;;;;;0.00;0.00;;;;;;;7.32;100.00;99814.22;5027394;28;20478;-76
2023/11/20 02:12:28;;;;;;;0.00;0.00;;;;;;;7.14;100.00;99791.78;5033810;28;20045;-77
2023/11/20 02:14:55;;;;;;;0.00;0.00;;;;;;;7.26;100.00;99804.41;5050300;28;20025;-76
2023/11/20 02:17:20;;;;;;;0.00;0.00;;;;;;;7.38;100.00;99813.19;5021888;28;20025;-76
2023/11/20 02:19:55;;;;;;;0.00;0.00;;;;;;;7.32;100.00;99779.69;5040495;28;20060;-77
2023/11/20 02:22:21;;;;;;;0.00;0.00;;;;;;;7.34;100.00;99773.97;5015735;28;20052;-77
2023/11/20 02:24:49;;;;;;;0.00;0.00;;;;;;;7.40;100.00;99775.66;5007301;28;20021;-76
2023/11/20 02:27:39;;;;;;;0.00;0.00;;;;;;;7.59;100.00;99797.00;5039308;28;20021;-77
2023/11/20 02:30:05;;;;;;;0.00;0.00;;;;;;;7.54;100.00;99776.03;5023960;28;20029;-76
2023/11/20 02:32:31;;;;;;;0.05;0.05;;;;;;;7.57;100.00;99766.53;5028539;28;20032;-77
2023/11/20 02:34:57;;;;;;;0.00;0.00;;;;;;;7.59;100.00;99775.25;5038581;28;20517;-75
2023/11/20 02:37:22;;;;;;;0.00;0.00;;;;;;;7.56;100.00;99759.44;5024784;28;21283;-75
2023/11/20 02:39:51;;;;;;;0.00;0.00;;;;;;;7.66;100.00;99764.94;4999927;28;20033;-77
2023/11/20 02:42:22;;;;;;;0.00;0.00;;;;;;;7.71;100.00;99765.00;5012057;28;20032;-76
2023/11/20 02:44:50;;;;;;;0.00;0.00;;;;;;;8.07;98.89;99776.06;5029553;28;20408;-77
2023/11/20 02:47:22;;;;;;;0.00;0.00;;;;;;;8.12;98.29;99767.91;5043097;28;20098;-77
2023/11/20 02:49:47;;;;;;;0.00;0.00;;;;;;;8.14;97.69;99760.28;5009537;28;20021;-77
2023/11/20 02:52:15;;;;;;;0.00;0.00;;;;;;;7.74;97.47;99734.53;5035716;28;20021;-78
2023/11/20 02:54:41;;;;;;;0.00;0.00;;;;;;;7.66;98.17;99726.84;5043886;28;20597;-77
2023/11/20 02:57:09;;;;;;;0.00;0.00;;;;;;;7.59;98.77;99737.97;5014252;28;20037;-75
2023/11/20 02:59:34;;;;;;;0.00;0.00;;;;;;;7.68;99.34;99757.34;5030772;28;20029;-75
2023/11/20 03:02:07;;;;;;;0.00;0.00;;;;;;;7.57;99.18;99736.59;5035249;28;20736;-75
2023/11/20 03:04:35;;;;;;;0.00;0.00;;;;;;;7.50;99.81;99737.66;5033586;28;20483;-76
2023/11/20 03:07:10;;;;;;;0.00;0.00;;;;;;;7.30;100.00;99707.59;5046184;28;20025;-75
2023/11/20 03:09:36;;;;;;;0.00;0.00;;;;;;;7.24;100.00;99724.94;5037170;28;20045;-76
2023/11/20 03:12:04;;;;;;;0.00;0.00;;;;;;;7.14;100.00;99706.66;5004397;28;20029;-76
2023/11/20 03:14:29;;;;;;;0.00;0.00;;;;;;;7.05;100.00;99700.88;5012325;28;20060;-76
2023/11/20 03:16:58;;;;;;;0.00;0.00;;;;;;;7.01;100.00;99688.91;5059344;28;20029;-75
2023/11/20 03:19:24;;;;;;;0.00;0.00;;;;;;;7.14;100.00;99712.09;5064466;28;20445;-77
2023/11/20 03:21:52;;;;;;;0.00;0.00;;;;;;;6.98;100.00;99689.44;5041213;28;20116;-77
2023/11/20 03:24:17;;;;;;;0.00;0.00;;;;;;;7.01;100.00;99688.06;5038420;28;20083;-75
2023/11/20 03:26:43;;;;;;;0.00;0.00;;;;;;;7.33;100.00;99712.53;5019028;28;20033;-76
2023/11/20 03:29:08;;;;;;;0.00;0.00;;;;;;;7.41;100.00;99684.81;5034062;28;20538;-77
2023/11/20 03:31:38;;;;;;;0.00;0.00;;;;;;;7.54;100.00;99685.44;5015947;28;20113;-77
2023/11/20 03:34:05;;;;;;;0.00;0.00;;;;;;;7.65;100.00;99681.66;5012439;28;20055;-75
2023/11/20 03:36:34;;;;;;;0.00;0.00;;;;;;;7.65;100.00;99660.72;5023958;28;20032;-76
2023/11/20 03:39:08;;;;;;;0.00;0.00;;;;;;;7.84;100.00;99677.41;5035980;28;20028;-75
2023/11/20 03:41:33;;;;;;;0.00;0.00;;;;;;;7.80;100.00;99670.88;5043066;28;20053;-76
2023/11/20 03:43:59;;;;;;;0.00;0.00;;;;;;;7.86;100.00;99683.41;5040098;28;20091;-76
2023/11/20 03:46:24;;;;;;;0.00;0.00;;;;;;;7.79;100.00;99661.06;5021716;28;20112;-75
2023/11/20 03:48:52;;;;;;;0.00;0.00;;;;;;;8.05;100.00;99685.66;5012687;28;20025;-75
2023/11/20 03:51:25;;;;;;;0.00;0.00;;;;;;;8.01;100.00;99679.09;5025436;28;20031;-75
2023/11/20 03:53:50;;;;;;;0.00;0.00;;;;;;;7.90;100.00;99666.53;5018731;28;20028;-77
2023/11/20 03:56:16;;;;;;;0.00;0.00;;;;;;;7.76;100.00;99667.03;5027308;28;20040;-75
2023/11/20 03:58:44;;;;;;;0.10;0.10;;;;;;;7.73;100.00;99673.00;5023892;28;20123;-75
2023/11/20 04:01:10;;;;;;;0.00;0.00;;;;;;;7.67;100.00;99663.19;5050879;28;20033;-74
2023/11/20 04:03:36;;;;;;;0.00;0.00;;;;;;;7.62;100.00;99663.16;5017945;28;20041;-76
2023/11/20 04:06:01;;;;;;;0.00;0.00;;;;;;;7.65;100.00;99670.78;5014796;28;20087;-76
2023/11/20 04:08:27;;;;;;;0.00;0.00;;;;;;;7.53;100.00;99651.16;5056871;28;20040;-74
2023/11/20 04:10:54;;;;;;;0.00;0.00;;;;;;;7.37;100.00;99615.69;5040219;28;20687;-74
2023/11/20 04:13:22;;;;;;;0.00;0.00;;;;;;;7.45;100.00;99628.81;5044229;28;20033;-76
2023/11/20 04:15:48;;;;;;;0.00;0.00;;;;;;;7.53;100.00;99635.63;5042844;28;20029;-74
2023/11/20 04:18:13;;;;;;;0.00;0.00;;;;;;;7.41;100.00;99616.81;5003941;28;20054;-76
2023/11/20 04:20:39;;;;;;;0.00;0.00;;;;;;;7.58;100.00;99621.22;5025520;28;20132;-76
2023/11/20 04:23:09;;;;;;;0.00;0.00;;;;;;;7.55;100.00;99608.16;5029994;28;20468;-76
2023/11/20 04:25:42;;;;;;;0.00;0.00;;;;;;;7.72;100.00;99616.13;5030908;28;20036;-75
2023/11/20 04:28:14;;;;;;;0.00;0.00;;;;;;;7.85;100.00;99627.31;5032445;28;20055;-74
2023/11/20 04:30:50;;;;;;;;;;;;;;;;;;;;;
2023/11/20 04:33:18;;;;;;;0.00;0.00;;;;;;;7.88;100.00;99581.59;5047265;28;20505;-74
2023/11/20 04:35:45;;;;;;;0.00;0.00;;;;;;;7.93;100.00;99584.31;5029174;28;20461;-75
2023/11/20 04:38:10;;;;;;;0.10;0.10;;;;;;;8.06;100.00;99602.88;5009918;28;20471;-76
2023/11/20 04:40:35;;;;;;;0.00;0.00;;;;;;;7.90;100.00;99587.59;5032281;28;20040;-76
2023/11/20 04:43:01;;;;;;;0.00;0.00;;;;;;;7.85;100.00;99585.69;5047392;28;20020;-76
2023/11/20 04:45:29;;;;;;;0.00;0.00;;;;;;;7.89;100.00;99599.59;5023706;28;20032;-76
2023/11/20 04:48:00;;;;;;;0.00;0.00;;;;;;;7.68;100.00;99561.41;5031894;28;20033;-76
2023/11/20 04:50:33;;;;;;;0.00;0.00;;;;;;;7.58;100.00;99550.47;5015805;28;20021;-77
2023/11/20 04:53:08;;;;;;;0.00;0.00;;;;;;;7.45;100.00;99530.06;5031604;28;20037;-76
2023/11/20 04:55:34;;;;;;;0.00;0.00;;;;;;;7.43;100.00;99538.50;5066930;28;20478;-76
2023/11/20 04:58:00;;;;;;;0.00;0.00;;;;;;;7.51;100.00;99535.22;5026037;28;20021;-76
2023/11/20 05:00:28;;;;;;;0.00;0.00;;;;;;;7.38;100.00;99508.53;5040979;28;20071;-75
2023/11/20 05:02:56;;;;;;;0.00;0.00;;;;;;;7.45;100.00;99508.31;5044877;28;20449;-76
2023/11/20 05:05:29;;;;;;;0.00;0.00;;;;;;;7.35;100.00;99487.31;5058957;28;20028;-77
2023/11/20 05:07:54;;;;;;;0.00;0.00;;;;;;;7.63;100.00;99531.47;5041610;28;20024;-77
2023/11/20 05:10:20;;;;;;;0.08;0.08;;;;;;;7.69;100.00;99531.22;5052240;28;20033;-77
2023/11/20 05:12:47;;;;;;;0.00;0.00;;;;;;;7.72;100.00;99524.41;5030103;28;20230;-76
2023/11/20 05:15:13;;;;;;;0.00;0.00;;;;;;;7.78;100.00;99528.78;5038275;28;20104;-77
2023/11/20 05:17:41;;;;;;;0.00;0.00;;;;;;;7.66;100.00;99493.63;5060180;28;20112;-76
2023/11/20 05:20:07;;;;;;;0.00;0.00;;;;;;;7.69;100.00;99497.72;5058146;28;20118;-76
2023/11/20 05:22:38;;;;;;;0.00;0.00;;;;;;;7.70;100.00;99493.94;5070844;28;20446;-76
2023/11/20 05:25:05;;;;;;;0.00;0.00;;;;;;;7.65;100.00;99478.41;5064911;28;20027;-74
2023/11/20 05:27:30;;;;;;;0.00;0.00;;;;;;;7.68;100.00;99456.09;5069114;28;20037;-78
2023/11/20 05:29:55;;;;;;;0.00;0.00;;;;;;;7.72;100.00;99447.41;5053740;28;20028;-77
2023/11/20 05:32:21;;;;;;;0.00;0.00;;;;;;;7.82;100.00;99453.66;5040103;28;20031;-78
2023/11/20 05:34:47;;;;;;;0.00;0.00;;;;;;;7.91;100.00;99462.09;5067774;28;20108;-75
2023/11/20 05:37:12;;;;;;;0.00;0.00;;;;;;;7.85;100.00;99442.22;5045374;28;20058;-75
2023/11/20 05:39:39;;;;;;;0.00;0.00;;;;;;;7.85;100.00;99436.78;5059621;28;20035;-77
2023/11/20 05:42:05;;;;;;;0.00;0.00;;;;;;;7.92;100.00;99449.31;5040157;28;20036;-76
2023/11/20 05:44:32;;;;;;;0.00;0.00;;;;;;;7.83;100.00;99428.06;5058030;28;20025;-78
2023/11/20 05:46:58;;;;;;;0.00;0.00;;;;;;;7.97;100.00;99441.13;5059500;28;20103;-78
2023/11/20 05:49:23;;;;;;;0.00;0.00;;;;;;;7.97;100.00;99422.06;5065080;28;20203;-77
2023/11/20 05:51:49;;;;;;;0.00;0.00;;;;;;;7.92;100.00;99409.28;5062479;28;20029;-78
2023/11/20 05:54:16;;;;;;;0.00;0.00;;;;;;;8.10;100.00;99416.06;5048367;28;20048;-78
2023/11/20 05:56:42;;;;;;;0.00;0.00;;;;;;;8.13;100.00;99401.09;5058298;28;20024;-77
2023/11/20 05:59:08;;;;;;;0.00;0.00;;;;;;;8.28;100.00;99411.97;5039586;28;20402;-78
2023/11/20 06:01:38;;;;;;;0.00;0.00;;;;;;;8.23;100.00;99398.34;5054691;28;20025;-77
2023/11/20 06:04:04;;;;;;;0.00;0.00;;;;;;;8.14;100.00;99378.22;5040092;28;20028;-78
2023/11/20 06:06:30;;;;;;;0.00;0.00;;;;;;;8.14;100.00;99384.47;5069212;28;20032;-78
2023/11/20 06:08:55;;;;;;;0.00;0.00;;;;;;;8.20;100.00;99393.47;5055561;28;20398;-77
2023/11/20 06:11:24;;;;;;;0.00;0.00;;;;;;;8.21;100.00;99379.56;5071735;28;20020;-77
2023/11/20 06:13:49;;;;;;;0.08;0.08;;;;;;;8.40;100.00;99395.31;5044238;28;20033;-77
2023/11/20 06:16:17;;;;;;;0.10;0.10;;;;;;;8.20;100.00;99347.16;5035613;28;20027;-78
2023/11/20 06:18:43;;;;;;;0.00;0.00;;;;;;;8.31;100.00;99364.28;5059434;28;20126;-77
2023/11/20 06:21:08;;;;;;;0.00;0.00;;;;;;;8.42;100.00;99357.72;5063752;28;20127;-76
2023/11/20 06:23:34;;;;;;;0.00;0.00;;;;;;;8.31;100.00;99339.75;5053031;28;20497;-77
2023/11/20 06:26:00;;;;;;;0.00;0.00;;;;;;;8.42;100.00;99341.38;5055431;28;20048;-77
2023/11/20 06:28:26;;;;;;;0.00;0.00;;;;;;;8.46;100.00;99347.94;5058331;28;20057;-76
2023/11/20 06:30:51;;;;;;;0.00;0.00;;;;;;;8.40;100.00;99338.13;5068485;28;20029;-76
2023/11/20 06:33:17;;;;;;;0.00;0.00;;;;;;;8.49;100.00;99350.09;5044637;28;20211;-77
2023/11/20 06:35:43;;;;;;;0.00;0.00;;;;;;;8.61;100.00;99348.97;5072216;28;20028;-76
2023/11/20 06:38:09;;;;;;;0.00;0.00;;;;;;;8.51;100.00;99317.94;5054283;28;20765;-76
2023/11/20 06:40:36;;;;;;;0.00;0.00;;;;;;;8.64;100.00;99332.06;5039949;28;20032;-76
2023/11/20 06:43:03;;;;;;;0.00;0.00;;;;;;;8.71;100.00;99338.00;5046215;28;20080;-75
2023/11/20 06:45:38;;;;;;;;;;;;;;;;;;;;;
2023/11/20 06:48:04;;;;;;;0.00;0.00;;;;;;;8.76;100.00;99335.28;5057796;28;20037;-75
2023/11/20 06:50:35;;;;;;;0.00;0.00;;;;;;;8.80;100.00;99335.50;5060149;28;20114;-76
2023/11/20 06:53:04;;;;;;;0.00;0.00;;;;;;;8.74;100.00;99324.63;5052435;28;20036;-75
2023/11/20 06:55:30;;;;;;;0.00;0.00;;;;;;;8.72;100.00;99317.84;5037249;28;20052;-75
2023/11/20 06:57:55;;;;;;;0.00;0.00;;;;;;;8.91;100.00;99342.56;5051060;28;20085;-75
2023/11/20 07:00:21;;;;;;;0.00;0.00;;;;;;;8.87;100.00;99331.38;5070992;28;20479;-76
2023/11/20 07:02:52;;;;;;;0.00;0.00;;;;;;;8.83;100.00;99340.41;5043134;28;20068;-74
2023/11/20 07:05:18;;;;;;;0.00;0.00;;;;;;;8.89;100.00;99345.56;5046399;28;20047;-76
2023/11/20 07:07:58;;;;;;;0.00;0.00;;;;;;;8.82;100.00;99325.13;5046679;28;20040;-81
2023/11/20 07:10:25;;;;;;;0.00;0.00;;;;;;;9.03;100.00;99369.47;5046505;28;20029;-78
2023/11/20 07:12:53;;;;;;;0.00;0.00;;;;;;;8.87;100.00;99357.84;5026017;28;20039;-82
2023/11/20 07:15:19;;;;;;;0.00;0.00;;;;;;;8.88;100.00;99365.72;5048111;28;20107;-75
2023/11/20 07:17:45;;;;;;;0.00;0.00;;;;;;;8.80;100.00;99365.50;5078047;28;20085;-76
2023/11/20 07:20:11;;;;;;;0.00;0.00;;;;;;;8.64;100.00;99359.31;5053788;28;20436;-74
2023/11/20 07:22:36;;;;;;;0.00;0.00;;;;;;;8.57;100.00;99354.13;5037966;28;20364;-78
2023/11/20 07:25:03;;;;;;;0.00;0.00;;;;;;;8.48;100.00;99345.72;5056518;28;20037;-74
2023/11/20 07:27:30;;;;;;;0.00;0.00;;;;;;;8.56;100.00;99358.78;5067965;28;20090;-77
2023/11/20 07:29:55;;;;;;;0.00;0.00;;;;;;;8.64;100.00;99365.56;5050040;28;20095;-76
2023/11/20 07:32:21;;;;;;;0.00;0.00;;;;;;;8.56;100.00;99353.34;5036540;28;20032;-75
2023/11/20 07:34:54;;;;;;;0.00;0.00;;;;;;;8.68;100.00;99361.19;5051306;28;20024;-77
2023/11/20 07:37:22;;;;;;;0.00;0.00;;;;;;;8.71;100.00;99366.06;5062370;28;20076;-76
2023/11/20 07:39:47;;;;;;;0.00;0.00;;;;;;;8.66;100.00;99359.81;5031112;28;20041;-76
2023/11/20 07:42:14;;;;;;;0.00;0.00;;;;;;;8.72;100.00;99366.91;5052440;28;20024;-77
2023/11/20 07:44:40;;;;;;;0.00;0.00;;;;;;;8.89;100.00;99405.53;5055071;28;20024;-77
2023/11/20 07:47:05;;;;;;;0.00;0.00;;;;;;;8.67;100.00;99380.53;5052890;28;20035;-75
2023/11/20 07:49:31;;;;;;;0.00;0.00;;;;;;;8.67;100.00;99372.38;5045413;28;20081;-75
2023/11/20 07:52:06;;;;;;;0.00;0.00;;;;;;;8.86;100.00;99406.09;5034777;28;20037;-74
2023/11/20 07:54:36;;;;;;;0.00;0.00;;;;;;;8.86;100.00;99397.94;5063175;28;20025;-75
2023/11/20 07:57:03;;;;;;;0.00;0.00;;;;;;;9.05;100.00;99435.44;5050447;28;20025;-75
2023/11/20 07:59:29;;;;;;;0.00;0.00;;;;;;;9.02;100.00;99416.91;5036410;28;20033;-75
2023/11/20 08:01:57;;;;;;;0.10;0.10;;;;;;;9.01;100.00;99407.09;5060092;28;20028;-75
2023/11/20 08:04:23;;;;;;;0.00;0.00;;;;;;;9.20;100.00;99427.19;5053291;28;20035;-79
2023/11/20 08:06:48;;;;;;;0.00;0.00;;;;;;;9.09;100.00;99410.06;5052209;28;20037;-77
2023/11/20 08:09:15;;;;;;;0.00;0.00;;;;;;;9.04;100.00;99412.03;5037884;28;20032;-76
2023/11/20 08:11:41;;;;;;;0.00;0.00;;;;;;;9.10;100.00;99424.53;5053713;28;20083;-74
2023/11/20 08:14:14;;;;;;;0.00;0.00;;;;;;;9.07;100.00;99416.91;5076295;28;20021;-75
2023/11/20 08:16:43;;;;;;;0.00;0.00;;;;;;;9.41;100.00;99443.44;5045881;28;20056;-74
2023/11/20 08:19:08;;;;;;;0.00;0.00;;;;;;;9.42;100.00;99456.00;5037236;28;20036;-76
2023/11/20 08:21:34;;;;;;;0.00;0.00;;;;;;;9.22;100.00;99429.66;5023577;28;20063;-74
2023/11/20 08:24:02;;;;;;;0.00;0.00;;;;;;;9.35;100.00;99441.84;5044469;28;20036;-75
2023/11/20 08:26:29;;;;;;;0.00;0.00;;;;;;;9.37;100.00;99436.91;5026866;28;20029;-74
2023/11/20 08:28:55;;;;;;;0.00;0.00;;;;;;;9.52;100.00;99466.03;5024774;28;20063;-76
2023/11/20 08:31:20;;;;;;;0.08;0.08;;;;;;;9.40;100.00;99450.81;5046124;28;20108;-75
2023/11/20 08:33:46;;;;;;;0.00;0.00;;;;;;;9.42;100.00;99456.81;5018188;28;20508;-75
2023/11/20 08:36:12;;;;;;;0.00;0.00;;;;;;;9.46;100.00;99472.63;5044179;28;20033;-74
2023/11/20 08:38:39;;;;;;;0.00;0.00;;;;;;;9.37;100.00;99461.47;5017041;28;20033;-74
2023/11/20 08:41:05;;;;;;;0.00;0.00;;;;;;;9.58;100.00;99493.00;5018290;28;20033;-75
2023/11/20 08:43:31;;;;;;;0.00;0.00;;;;;;;9.51;100.00;99478.84;5042666;28;20386;-74
2023/11/20 08:45:59;;;;;;;0.00;0.00;;;;;;;9.40;100.00;99469.09;5030173;28;20119;-74
2023/11/20 08:48:34;;;;;;;0.00;0.00;;;;;;;9.43;100.00;99471.25;5022166;28;21959;-76
2023/11/20 08:51:00;;;;;;;0.00;0.00;;;;;;;9.47;100.00;99491.44;5036046;28;21313;-75
2023/11/20 08:53:26;;;;;;;0.00;0.00;;;;;;;9.41;100.00;99487.09;5026772;28;20029;-76
2023/11/20 08:55:51;;;;;;;0.00;0.00;;;;;;;9.61;100.00;99510.75;5050204;28;20037;-75
2023/11/20 08:58:17;;;;;;;0.00;0.00;;;;;;;9.55;100.00;99493.56;5021891;28;20052;-76
2023/11/20 09:00:43;;;;;;;0.00;0.00;;;;;;;9.67;100.00;99511.53;5047133;28;20026;-76
2023/11/20 09:03:11;;;;;;;0.00;0.00;;;;;;;9.49;100.00;99494.72;5002019;28;20022;-75
2023/11/20 09:05:45;;;;;;;0.00;0.00;;;;;;;9.69;100.00;99525.72;5044811;28;20108;-77
2023/11/20 09:08:12;;;;;;;0.03;0.03;;;;;;;9.52;100.00;99494.16;5065589;28;20047;-74
2023/11/20 09:10:41;;;;;;;0.00;0.00;;;;;;;9.80;100.00;99532.75;5051379;28;20386;-76
2023/11/20 09:13:09;;;;;;;0.00;0.00;;;;;;;9.51;100.00;99487.03;5005786;28;20033;-75
2023/11/20 09:15:37;;;;;;;0.00;0.00;;;;;;;9.80;100.00;99538.22;5017178;28;20033;-75
2023/11/20 09:18:06;;;;;;;0.00;0.00;;;;;;;9.72;100.00;99528.69;5028564;28;20116;-76
2023/11/20 09:20:32;;;;;;;0.00;0.00;;;;;;;9.69;100.00;99542.09;5056120;28;20144;-75
2023/11/20 09:23:00;;;;;;;0.00;0.00;;;;;;;9.68;100.00;99532.25;5048895;28;20030;-74
2023/11/20 09:25:28;;;;;;;0.00;0.00;;;;;;;9.63;100.00;99529.56;5041852;28;20041;-75
2023/11/20 09:27:56;;;;;;;0.00;0.00;;;;;;;9.96;100.00;99575.25;5066131;28;20067;-74
2023/11/20 09:30:24;;;;;;;0.00;0.00;;;;;;;9.75;100.00;99530.03;5063063;28;20032;-74
2023/11/20 09:32:50;;;;;;;0.08;0.08;;;;;;;10.01;100.00;99570.84;5031888;28;20090;-74
2023/11/20 09:35:20;;;;;;;0.00;0.00;;;;;;;10.03;100.00;99553.09;5061038;28;20051;-74
2023/11/20 09:37:48;;;;;;;0.00;0.00;;;;;;;10.13;100.00;99557.63;5050236;28;20028;-74
2023/11/20 09:40:14;;;;;;;0.00;0.00;;;;;;;10.29;100.00;99567.38;5031346;28;20049;-74
2023/11/20 09:42:43;;;;;;;0.00;0.00;;;;;;;10.57;100.00;99595.06;5066417;28;20025;-74
2023/11/20 09:45:28;;;;;;;0.00;0.00;;;;;;;10.85;100.00;99572.66;5033251;28;20029;-74
2023/11/20 09:47:58;;;;;;;0.00;0.00;;;;;;;11.54;100.00;99600.63;5047580;28;20410;-74
2023/11/20 09:50:28;;;;;;;0.00;0.00;;;;;;;11.76;100.00;99597.34;5037873;28;20029;-75
2023/11/20 09:53:00;;;;;;;0.00;0.00;;;;;;;14.50;100.00;99596.72;5069617;28;20025;-74
2023/11/20 09:55:26;;;;;;;0.00;0.00;;;;;;;18.09;92.88;99624.47;5020798;28;20035;-73
2023/11/20 09:57:52;;;;;;;0.00;0.00;;;;;;;20.60;75.26;99605.53;5035645;28;20100;-73
2023/11/20 10:00:18;;;;;;;0.00;0.00;;;;;;;23.05;64.51;99620.41;5049062;28;20029;-76
2023/11/20 10:02:50;;;;;;;0.00;0.00;;;;;;;25.15;57.01;99627.84;5026775;28;20128;-75
2023/11/20 10:05:26;;;;;;;0.00;0.00;;;;;;;23.79;55.87;99655.59;5065117;28;20021;-75
2023/11/20 10:07:56;;;;;;;0.00;0.00;;;;;;;21.45;63.40;99634.84;5032021;28;20425;-74
2023/11/20 10:10:24;;;;;;;0.00;0.00;;;;;;;19.73;70.45;99663.13;5055651;28;20421;-73
2023/11/20 10:12:53;;;;;;;0.00;0.00;;;;;;;18.75;75.00;99636.81;5023294;28;20540;-74
2023/11/20 10:15:21;;;;;;;0.00;0.00;;;;;;;20.22;73.69;99635.38;5071015;28;20090;-74
2023/11/20 10:17:47;;;;;;;0.00;0.00;;;;;;;21.60;63.38;99626.88;5037109;28;20083;-72
2023/11/20 10:20:16;;;;;;;0.00;0.00;;;;;;;21.29;64.21;99645.16;5049351;28;20045;-74
2023/11/20 10:22:49;;;;;;;0.00;0.00;;;;;;;23.75;58.85;99660.31;5062840;28;20095;-74
2023/11/20 10:25:17;;;;;;;0.00;0.00;;;;;;;24.16;54.19;99646.59;5020172;28;20025;-74
2023/11/20 10:27:45;;;;;;;0.00;0.00;;;;;;;25.75;51.99;99660.38;5033920;28;20491;-73
2023/11/20 10:30:21;;;;;;;;;;;;;;;;;;;;;
2023/11/20 10:32:47;;;;;;;0.00;0.00;;;;;;;22.33;56.69;99655.22;5035563;28;20033;-76
2023/11/20 10:35:17;;;;;;;0.00;0.00;;;;;;;19.80;63.17;99669.78;5067534;28;20105;-76
2023/11/20 10:37:52;;;;;;;0.00;0.00;;;;;;;17.94;69.82;99676.47;5036513;28;20049;-76
2023/11/20 10:40:18;;;;;;;0.00;0.00;;;;;;;16.47;71.70;99654.41;5055089;28;20065;-73
2023/11/20 10:42:44;;;;;;;0.00;0.00;;;;;;;15.91;74.78;99680.91;5034766;28;20079;-73
2023/11/20 10:45:11;;;;;;;0.00;0.00;;;;;;;15.47;74.66;99675.19;5039531;28;20065;-74
2023/11/20 10:47:39;;;;;;;0.00;0.00;;;;;;;17.70;71.08;99659.69;5034636;28;20025;-75
2023/11/20 10:50:07;;;;;;;0.00;0.00;;;;;;;22.13;58.02;99685.75;5027321;28;20037;-73
2023/11/20 10:52:39;;;;;;;0.00;0.00;;;;;;;25.42;41.86;99658.50;5046758;28;20032;-74
2023/11/20 10:55:07;;;;;;;0.00;0.00;;;;;;;28.19;39.02;99684.06;5025773;28;20026;-74
2023/11/20 10:57:33;;;;;;;0.00;0.00;;;;;;;30.07;35.24;99692.31;5036147;28;20052;-73
2023/11/20 11:00:07;;;;;;;0.00;0.00;;;;;;;31.49;31.28;99693.81;5042873;28;20119;-73
2023/11/20 11:02:36;;;;;;;0.00;0.00;;;;;;;32.10;29.83;99682.75;5040442;28;20750;-76
2023/11/20 11:05:11;;;;;;;0.00;0.00;;;;;;;33.02;27.87;99670.03;5041740;28;20021;-74
2023/11/20 11:07:42;;;;;;;0.00;0.00;;;;;;;32.87;27.03;99670.34;5039802;28;20033;-75
2023/11/20 11:10:52;;;;;;;0.00;0.00;;;;;;;31.69;28.22;99662.06;5062155;28;20075;-74
2023/11/20 11:13:04;;;;;;;0.00;0.00;;;;;;;28.77;32.38;99630.44;5058044;28;20047;-75
2023/11/20 11:15:31;;;;;;;0.00;0.00;;;;;;;26.64;34.19;99675.34;5051966;28;20047;-74
2023/11/20 11:18:12;;;;;;;0.00;0.00;;;;;;;25.47;37.81;99652.56;5055350;28;20028;-74
2023/11/20 11:21:00;;;;;;;0.00;0.00;;;;;;;22.74;40.49;99630.59;5050528;28;20041;-74
2023/11/20 11:23:52;;;;;;;0.00;0.00;;;;;;;20.58;45.05;99642.00;5040070;28;20201;-74
2023/11/20 11:26:46;;;;;;;0.00;0.00;;;;;;;19.05;48.32;99667.19;5036444;28;20044;-73
2023/11/20 11:29:29;;;;;;;0.00;0.00;;;;;;;17.71;51.27;99628.09;5047213;28;20028;-75
2023/11/20 11:32:21;;;;;;;0.00;0.00;;;;;;;17.00;53.55;99668.19;5045931;28;20052;-74
2023/11/20 11:35:10;;;;;;;0.00;0.00;;;;;;;16.36;56.95;99664.91;5046447;28;20083;-75
2023/11/20 11:38:02;;;;;;;0.00;0.00;;;;;;;16.00;59.15;99678.97;5048031;28;20040;-75
2023/11/20 11:40:49;;;;;;;0.00;0.00;;;;;;;15.48;61.77;99696.91;5047397;28;20425;-76
2023/11/20 11:43:35;;;;;;;0.00;0.00;;;;;;;14.63;63.05;99669.31;5048447;28;20470;-76